Wappingers Falls, NY (12590)

8:42 PM EDT on September 22, 2014 (GMT -0400)
Crown Heights | Change Station
CLOSE
Current Station
Personal Weather Station
Location: Poughkeepsie, NY
Elevation: 308 ft
Nearby Weather Stations

Elev 308 ft 41.62 °N, 73.92 °W | Updated 7 seconds ago

Clear
Clear
51.4 °F
Feels Like 51.4 °F
N
0.0
Wind Variable Wind from NNE
Gusts 4.0 mph

Today
High -- | Low -- °F
--% Chance of Precip.
Yesterday
High -- | Low -- °F
Precip. -- in
6:42 AM 6:52 PM
Waning Crescent, 1% visible
Pressure 30.06 in
Visibility 10.0 miles
Clouds Clear
Dew Point 40 °F
Humidity 66%
Rainfall 0.01 in
Snow Depth Not available.
UV 0 out of 12
Pollen 3.30 out of 12
PM2.5 Good
Flu Activity Not available.
METAR KPOU 222353Z AUTO 30004KT 10SM CLR 13/04 A3007 RMK AO2 SLP178 T01280039 10211 20122 52039

More Conditions Fewer Conditions

Pressure 30.06 in
Visibility 10.0 miles
Clouds Clear
Dew Point 40 °F
Humidity 66%
Rainfall 0.01 in
Snow Depth Not available.
UV 0 out of 12
Pollen 3.30 out of 12
PM2.5 Good
Flu Activity Not available.
METAR KPOU 222353Z AUTO 30004KT 10SM CLR 13/04 A3007 RMK AO2 SLP178 T01280039 10211 20122 52039

More Conditions Fewer Conditions

10-Day Weather Forecast

Almanac

Astronomy

Sep. 22, 2014 Rise Set
Actual Time 6:42 AM EDT 6:52 PM EDT
Civil Twilight 6:15 AM EDT 7:20 PM EDT
Nautical Twilight 5:42 AM EDT 7:52 PM EDT
Astronomical Twilight 5:09 AM EDT 8:25 PM EDT
Moon 5:08 AM EDT (9/22) 5:59 PM EDT (9/22)
Length of Visible Light 13h 05m
Length of Day
12h 09m
Tomorrow will be 2m 46s shorter.
Waning Crescent, 1% of the Moon is Illuminated
Today
Waning Crescent
Sep 24
New
Oct 1
First Quarter
Oct 8
Full
Oct 15
Last Quarter

Today's Extremes

State Highs State Lows

Community

WunderPhotos

Upload Photos

1,755,575 photos uploaded!

Nearby

Air Quality

  Air Quality AQ Index Pollutant
Yesterday Good
OZONE
Yesterday Good
PM2.5
Current Good
PM2.5
Monday Good
OZONE
Monday Good
PM2.5
Tuesday Good
OZONE
Tuesday Good
PM2.5

Snow Depth

Station Depth Elevation
No new snow has been reported.

Earthquake Activity

City Distance Mag. Time & Date
No recent earthquake activity has been reported nearby.
Minimum magnitude displayed is 2.5.

Coastal Water Temperatures

Place Temperature
No Stations Reporting

Nearby Weather Stations